Time;durP1;ratioP1;P1;durP2;ratioP2;P2;SDS_P1;SDS_P2;PMS_P1;PMS_P2;Temp;Humidity;BMP_temperature;BMP_pressure;BME280_temperature;BME280_humidity;BME280_pressure;Samples;Min_cycle;Max_cycle;Signal;HPM_P1;HPM_P2
2023/06/07 00:02:34;;;;;;;11.32;4.80;;;;;;;9.49;100.00;102269.06;6241565;23;20132;-74
2023/06/07 00:05:21;;;;;;;11.02;5.22;;;;;;;9.48;100.00;102277.03;6231440;23;20019;-74
2023/06/07 00:08:06;;;;;;;9.68;4.22;;;;;;;9.49;100.00;102276.13;6219236;23;20031;-74
2023/06/07 00:10:50;;;;;;;9.88;4.28;;;;;;;9.50;100.00;102264.66;6241747;23;20019;-74
2023/06/07 00:13:34;;;;;;;11.88;5.13;;;;;;;9.54;100.00;102270.75;6241133;23;20067;-74
2023/06/07 00:16:18;;;;;;;14.88;4.30;;;;;;;9.56;100.00;102272.47;6231014;23;20082;-74
2023/06/07 00:19:03;;;;;;;10.60;5.00;;;;;;;9.59;100.00;102275.06;6243068;23;20074;-74
2023/06/07 00:21:48;;;;;;;11.05;5.40;;;;;;;9.59;100.00;102269.78;6243973;23;20096;-74
2023/06/07 00:24:32;;;;;;;9.43;4.25;;;;;;;9.60;100.00;102265.38;6209990;23;20886;-74
2023/06/07 00:27:16;;;;;;;11.00;5.00;;;;;;;9.62;100.00;102269.72;6241652;23;20027;-74
2023/06/07 00:30:02;;;;;;;7.57;4.28;;;;;;;9.64;100.00;102267.91;6240989;23;20098;-75
2023/06/07 00:32:46;;;;;;;9.32;4.15;;;;;;;9.68;100.00;102265.19;6230329;23;20066;-74
2023/06/07 00:35:30;;;;;;;9.07;4.50;;;;;;;9.67;100.00;102272.28;6230402;23;20027;-74
2023/06/07 00:38:14;;;;;;;8.18;4.00;;;;;;;9.67;100.00;102268.75;6240977;23;20045;-74
2023/06/07 00:40:58;;;;;;;12.60;3.80;;;;;;;9.68;100.00;102267.84;6241683;23;20625;-74
2023/06/07 00:43:44;;;;;;;10.18;4.13;;;;;;;9.69;100.00;102269.63;6241995;23;20035;-74
2023/06/07 00:46:29;;;;;;;8.00;3.92;;;;;;;9.69;100.00;102270.47;6230656;23;20382;-74
2023/06/07 00:49:17;;;;;;;7.72;3.17;;;;;;;9.68;100.00;102263.44;6219081;23;20027;-74
2023/06/07 00:52:01;;;;;;;8.50;3.78;;;;;;;9.69;100.00;102251.97;6241614;23;20471;-75
2023/06/07 00:54:45;;;;;;;6.00;3.22;;;;;;;9.70;100.00;102255.50;6240941;23;20015;-74
2023/06/07 00:57:32;;;;;;;12.20;3.85;;;;;;;9.71;100.00;102259.88;6218611;23;20046;-74
2023/06/07 01:00:18;;;;;;;8.48;3.22;;;;;;;9.69;100.00;102262.53;6232163;23;20484;-75
2023/06/07 01:03:02;;;;;;;9.73;3.33;;;;;;;9.68;100.00;102257.25;6222695;23;20081;-76
2023/06/07 01:05:48;;;;;;;11.85;3.70;;;;;;;9.67;100.00;102261.69;6245181;23;20015;-75
2023/06/07 01:08:33;;;;;;;8.52;3.70;;;;;;;9.67;100.00;102255.53;6234728;23;20027;-75
2023/06/07 01:11:21;;;;;;;11.63;3.58;;;;;;;9.64;100.00;102254.69;6243617;23;20123;-75
2023/06/07 01:14:05;;;;;;;7.55;3.65;;;;;;;9.64;100.00;102252.06;6242415;23;20070;-74
2023/06/07 01:16:51;;;;;;;10.38;3.70;;;;;;;9.67;100.00;102253.75;6244863;23;20046;-75
2023/06/07 01:19:36;;;;;;;7.00;3.80;;;;;;;9.66;100.00;102257.31;6190445;23;20646;-75
2023/06/07 01:22:24;;;;;;;7.20;3.28;;;;;;;9.67;100.00;102251.13;6244946;23;20340;-75
2023/06/07 01:25:09;;;;;;;6.63;3.25;;;;;;;9.66;100.00;102252.03;6243154;23;20031;-75
2023/06/07 01:27:56;;;;;;;6.10;2.95;;;;;;;9.65;100.00;102251.16;6220802;23;20517;-75
2023/06/07 01:30:40;;;;;;;6.72;2.78;;;;;;;9.67;100.00;102250.25;6220383;23;20058;-75
2023/06/07 01:33:24;;;;;;;5.45;3.00;;;;;;;9.69;100.00;102248.47;6242972;23;20097;-75
2023/06/07 01:36:09;;;;;;;7.55;3.05;;;;;;;9.69;100.00;102249.31;6219630;23;20054;-76
2023/06/07 01:38:54;;;;;;;5.93;3.00;;;;;;;9.71;100.00;102246.66;6219783;23;20340;-75
2023/06/07 01:41:38;;;;;;;7.80;3.25;;;;;;;9.71;100.00;102252.81;6219662;23;20031;-75
2023/06/07 01:44:22;;;;;;;6.18;3.17;;;;;;;9.73;100.00;102258.06;6217694;23;20018;-75
2023/06/07 01:47:07;;;;;;;7.80;3.17;;;;;;;9.73;100.00;102252.75;6219353;23;20082;-75
2023/06/07 01:49:50;;;;;;;8.50;3.40;;;;;;;9.75;100.00;102241.25;6241171;23;20023;-75
2023/06/07 01:52:35;;;;;;;8.45;3.35;;;;;;;9.78;100.00;102253.56;6242107;23;20093;-75
2023/06/07 01:55:19;;;;;;;8.40;3.10;;;;;;;9.76;100.00;102248.28;6232385;23;20529;-75
2023/06/07 01:58:27;;;;;;;6.85;3.17;;;;;;;9.79;100.00;102244.72;6242946;23;20096;-75
2023/06/07 02:01:18;;;;;;;11.07;3.45;;;;;;;9.81;100.00;102249.97;6230527;23;20573;-75
2023/06/07 02:04:05;;;;;;;7.70;3.42;;;;;;;9.84;100.00;102248.16;6219847;23;20053;-75
2023/06/07 02:06:51;;;;;;;6.47;3.10;;;;;;;9.88;100.00;102251.59;6209652;23;20042;-75
2023/06/07 02:09:37;;;;;;;8.60;3.33;;;;;;;9.87;100.00;102248.06;6219514;23;20027;-75
2023/06/07 02:12:22;;;;;;;8.98;3.88;;;;;;;9.87;100.00;102250.72;6219081;23;20065;-75
2023/06/07 02:15:07;;;;;;;9.00;3.47;;;;;;;9.88;100.00;102243.66;6236890;23;20028;-75
2023/06/07 02:17:58;;;;;;;5.25;2.90;;;;;;;9.90;100.00;102248.03;6244224;23;20099;-75
2023/06/07 02:20:43;;;;;;;6.28;3.03;;;;;;;9.89;100.00;102248.06;6223063;23;20030;-75
2023/06/07 02:23:27;;;;;;;9.02;3.13;;;;;;;9.88;100.00;102239.25;6243776;23;20796;-75
2023/06/07 02:26:11;;;;;;;8.77;3.22;;;;;;;9.90;100.00;102244.50;6241854;23;20054;-75
2023/06/07 02:28:55;;;;;;;7.13;2.75;;;;;;;9.93;100.00;102241.81;6232409;23;20015;-75
2023/06/07 02:31:39;;;;;;;7.07;2.95;;;;;;;9.95;100.00;102247.94;6242063;23;20034;-75
2023/06/07 02:34:24;;;;;;;9.05;3.15;;;;;;;9.99;100.00;102246.09;6241990;23;20039;-75
2023/06/07 02:37:08;;;;;;;6.90;2.67;;;;;;;10.01;100.00;102246.91;6209571;23;20465;-75
2023/06/07 02:39:52;;;;;;;7.22;3.10;;;;;;;10.05;100.00;102245.97;6241664;23;20011;-74
2023/06/07 02:42:37;;;;;;;6.53;3.17;;;;;;;10.05;100.00;102245.97;6230860;23;20027;-75
2023/06/07 02:45:20;;;;;;;8.77;2.78;;;;;;;10.06;100.00;102239.75;6212925;23;20360;-76
2023/06/07 02:48:05;;;;;;;7.70;3.28;;;;;;;10.07;100.00;102241.50;6232050;23;20762;-75
2023/06/07 02:50:49;;;;;;;6.45;3.15;;;;;;;10.11;100.00;102244.97;6242259;23;20749;-75
2023/06/07 02:53:33;;;;;;;6.22;2.70;;;;;;;10.14;100.00;102251.06;6241982;23;20031;-75
2023/06/07 02:56:17;;;;;;;5.18;3.05;;;;;;;10.14;100.00;102251.06;6219123;23;20035;-75
2023/06/07 02:59:01;;;;;;;8.18;3.40;;;;;;;10.15;100.00;102252.78;6241970;23;20466;-75
2023/06/07 03:01:46;;;;;;;9.45;3.00;;;;;;;10.19;100.00;102243.03;6244027;23;20452;-75
2023/06/07 03:04:30;;;;;;;7.88;2.72;;;;;;;10.22;100.00;102248.25;6244242;23;20027;-75
2023/06/07 03:07:14;;;;;;;5.00;2.92;;;;;;;10.22;100.00;102248.25;6220910;23;20073;-75
2023/06/07 03:09:58;;;;;;;6.97;3.08;;;;;;;10.23;100.00;102247.34;6234262;23;20135;-75
2023/06/07 03:12:42;;;;;;;7.10;2.65;;;;;;;10.22;100.00;102236.78;6243959;23;20392;-76
2023/06/07 03:15:27;;;;;;;7.10;2.58;;;;;;;10.22;100.00;102242.06;6236923;23;20067;-76
2023/06/07 03:18:15;;;;;;;8.77;2.97;;;;;;;10.22;100.00;102239.44;6211427;23;20088;-76
2023/06/07 03:21:00;;;;;;;7.88;2.22;;;;;;;10.21;100.00;102233.28;6212079;23;20114;-75
2023/06/07 03:23:44;;;;;;;6.65;2.33;;;;;;;10.23;100.00;102230.63;6243263;23;20141;-75
2023/06/07 03:26:28;;;;;;;8.65;2.63;;;;;;;10.25;100.00;102242.03;6236156;23;20035;-76
2023/06/07 03:29:12;;;;;;;7.20;2.60;;;;;;;10.28;100.00;102242.84;6236009;23;20019;-76
2023/06/07 03:31:56;;;;;;;5.93;2.65;;;;;;;10.30;100.00;102237.50;6241444;23;20034;-76
2023/06/07 03:34:41;;;;;;;7.07;2.67;;;;;;;10.29;100.00;102249.88;6224771;23;20324;-76
2023/06/07 03:37:25;;;;;;;6.97;2.58;;;;;;;10.29;100.00;102248.97;6236775;23;20031;-76
2023/06/07 03:40:10;;;;;;;7.72;2.85;;;;;;;10.33;100.00;102250.66;6237575;23;20027;-76
2023/06/07 03:42:54;;;;;;;6.15;2.75;;;;;;;10.36;100.00;102245.31;6217983;23;20026;-76
2023/06/07 03:45:38;;;;;;;7.13;2.53;;;;;;;10.37;100.00;102255.00;6231914;23;20510;-76
2023/06/07 03:48:22;;;;;;;6.80;3.00;;;;;;;10.40;100.00;102254.06;6241119;23;20062;-75
2023/06/07 03:51:06;;;;;;;6.93;3.45;;;;;;;10.42;100.00;102255.78;6230916;23;20165;-75
2023/06/07 03:53:50;;;;;;;11.73;3.78;;;;;;;10.41;100.00;102247.84;6241609;23;20153;-75
2023/06/07 03:56:34;;;;;;;5.82;3.40;;;;;;;10.42;100.00;102245.19;6241818;23;20062;-76
2023/06/07 03:59:20;;;;;;;8.65;3.63;;;;;;;10.47;100.00;102247.75;6230750;23;20476;-75
2023/06/07 04:02:04;;;;;;;6.43;3.53;;;;;;;10.52;100.00;102245.00;6240050;23;20039;-76
2023/06/07 04:04:49;;;;;;;6.00;3.15;;;;;;;10.54;100.00;102243.19;6240793;23;20121;-75
2023/06/07 04:07:33;;;;;;;9.77;3.65;;;;;;;10.58;100.00;102242.22;6241841;23;20015;-75
2023/06/07 04:10:17;;;;;;;6.20;2.92;;;;;;;10.60;100.00;102237.75;6218262;23;20051;-76
2023/06/07 04:13:01;;;;;;;5.55;2.83;;;;;;;10.61;100.00;102239.47;6230925;23;20112;-76
2023/06/07 04:15:45;;;;;;;8.23;3.10;;;;;;;10.61;100.00;102239.47;6233372;23;20156;-75
2023/06/07 04:18:29;;;;;;;7.53;2.60;;;;;;;10.58;100.00;102245.72;6240501;23;20054;-75
2023/06/07 04:21:14;;;;;;;6.20;2.72;;;;;;;10.57;100.00;102230.75;6241934;23;20031;-75
2023/06/07 04:23:58;;;;;;;6.18;2.38;;;;;;;10.62;100.00;102237.72;6241952;23;20027;-75
2023/06/07 04:26:42;;;;;;;6.28;2.53;;;;;;;10.63;100.00;102231.50;6240919;23;20518;-76
2023/06/07 04:29:26;;;;;;;5.82;2.30;;;;;;;10.59;100.00;102233.34;6231892;23;20031;-75
2023/06/07 04:32:10;;;;;;;4.43;2.22;;;;;;;10.59;100.00;102236.84;6241006;23;20829;-75
2023/06/07 04:34:56;;;;;;;5.88;2.58;;;;;;;10.60;100.00;102235.09;6243356;23;20070;-75
2023/06/07 04:37:42;;;;;;;7.93;2.70;;;;;;;10.61;100.00;102228.03;6232747;23;20357;-76
2023/06/07 04:40:26;;;;;;;5.60;2.33;;;;;;;10.63;100.00;102231.50;6211803;23;20015;-76
2023/06/07 04:43:12;;;;;;;6.18;2.67;;;;;;;10.65;100.00;102235.88;6244557;23;20147;-76
2023/06/07 04:45:56;;;;;;;5.60;2.38;;;;;;;10.70;100.00;102225.16;6233568;23;20015;-76
2023/06/07 04:48:43;;;;;;;5.97;2.78;;;;;;;10.73;100.00;102228.59;6244957;23;20031;-76
2023/06/07 04:51:29;;;;;;;5.95;2.88;;;;;;;10.78;100.00;102225.84;6212325;23;20031;-76
2023/06/07 04:54:16;;;;;;;4.63;2.25;;;;;;;10.84;100.00;102222.19;6245089;23;20131;-75
2023/06/07 04:57:00;;;;;;;8.20;2.78;;;;;;;10.91;100.00;102230.84;6233620;23;20058;-76
2023/06/07 04:59:48;;;;;;;6.30;2.80;;;;;;;10.89;100.00;102222.91;6244926;23;20479;-76
2023/06/07 05:02:38;;;;;;;8.50;2.88;;;;;;;10.90;100.00;102227.31;6233535;23;20019;-76
2023/06/07 05:05:23;;;;;;;6.78;3.20;;;;;;;10.96;100.00;102223.66;6245387;23;20031;-76
2023/06/07 05:08:07;;;;;;;6.65;2.80;;;;;;;10.96;100.00;102227.16;6235379;23;20018;-76
2023/06/07 05:10:51;;;;;;;7.28;2.95;;;;;;;10.98;100.00;102224.47;6245394;23;20051;-76
2023/06/07 05:13:35;;;;;;;6.03;2.90;;;;;;;10.97;100.00;102226.28;6235086;23;20019;-76
2023/06/07 05:16:19;;;;;;;8.38;3.60;;;;;;;11.01;100.00;102229.72;6234725;23;20031;-76
2023/06/07 05:19:03;;;;;;;5.90;2.72;;;;;;;11.04;100.00;102232.28;6235254;23;20046;-76
2023/06/07 05:21:47;;;;;;;4.38;2.80;;;;;;;11.05;100.00;102231.34;6234619;23;20851;-77
2023/06/07 05:24:31;;;;;;;4.60;3.05;;;;;;;11.06;100.00;102224.28;6244877;23;20102;-76
2023/06/07 05:27:15;;;;;;;5.72;2.90;;;;;;;11.12;100.00;102232.09;6244656;23;20063;-76
2023/06/07 05:29:59;;;;;;;8.32;2.78;;;;;;;11.12;100.00;102225.00;6244581;23;20090;-76
2023/06/07 05:32:43;;;;;;;5.00;2.55;;;;;;;11.18;100.00;102231.06;6242763;23;20155;-76
2023/06/07 05:35:27;;;;;;;3.72;2.50;;;;;;;11.23;100.00;102237.97;6243263;23;20062;-76
2023/06/07 05:38:11;;;;;;;6.57;2.42;;;;;;;11.24;100.00;102242.34;6242435;23;20027;-76
2023/06/07 05:40:55;;;;;;;6.65;2.45;;;;;;;11.28;100.00;102240.53;6242425;23;20026;-76
2023/06/07 05:43:42;;;;;;;4.75;2.40;;;;;;;11.28;100.00;102233.41;6233185;23;20554;-76
2023/06/07 05:46:26;;;;;;;5.22;2.50;;;;;;;11.31;100.00;102235.13;6231926;23;20027;-77
2023/06/07 05:49:10;;;;;;;8.13;2.47;;;;;;;11.35;100.00;102244.75;6243183;23;20487;-76
2023/06/07 05:51:54;;;;;;;5.43;2.40;;;;;;;11.37;100.00;102247.34;6242571;23;20027;-76
2023/06/07 05:54:38;;;;;;;5.43;2.40;;;;;;;11.38;100.00;102246.41;6242307;23;20055;-76
2023/06/07 05:57:22;;;;;;;6.60;2.38;;;;;;;11.46;100.00;102238.28;6240926;23;20051;-76
2023/06/07 06:00:10;;;;;;;7.25;2.67;;;;;;;11.49;100.00;102244.38;6242988;23;20062;-75
2023/06/07 06:02:56;;;;;;;3.92;2.13;;;;;;;11.53;100.00;102240.72;6242772;23;20049;-75
2023/06/07 06:05:40;;;;;;;9.32;1.98;;;;;;;11.60;100.00;102251.19;6229851;23;20086;-75
2023/06/07 06:08:24;;;;;;;7.43;2.35;;;;;;;11.67;100.00;102247.44;6242347;23;20410;-75
2023/06/07 06:11:13;;;;;;;4.43;2.30;;;;;;;11.72;100.00;102247.31;6242264;23;20127;-76
2023/06/07 06:13:56;;;;;;;9.48;2.45;;;;;;;11.71;100.00;102256.19;6243341;23;20344;-75
2023/06/07 06:16:40;;;;;;;5.03;2.05;;;;;;;11.77;100.00;102254.22;6242744;23;20027;-75
2023/06/07 06:19:25;;;;;;;4.32;2.33;;;;;;;11.82;100.00;102254.06;6241816;23;20554;-76
2023/06/07 06:22:09;;;;;;;8.82;2.25;;;;;;;11.84;100.00;102257.59;6229711;23;20349;-76
2023/06/07 06:24:53;;;;;;;4.13;2.55;;;;;;;11.81;100.00;102255.00;6241697;23;20019;-75
2023/06/07 06:27:37;;;;;;;6.88;2.38;;;;;;;11.86;100.00;102250.44;6242836;23;20031;-76
2023/06/07 06:30:23;;;;;;;6.57;2.50;;;;;;;11.94;100.00;102255.53;6242065;23;20015;-75
2023/06/07 06:33:07;;;;;;;8.95;2.47;;;;;;;12.01;100.00;102259.75;6232806;23;20052;-76
2023/06/07 06:35:53;;;;;;;7.80;2.65;;;;;;;12.09;100.00;102262.19;6242961;23;20441;-76
2023/06/07 06:38:37;;;;;;;8.88;2.97;;;;;;;12.13;100.00;102270.94;6242059;23;20031;-76
2023/06/07 06:41:21;;;;;;;5.55;2.45;;;;;;;12.17;100.00;102272.59;6242690;23;20023;-76
2023/06/07 06:44:05;;;;;;;6.05;2.45;;;;;;;12.19;100.00;102282.25;6241549;23;20027;-76
2023/06/07 06:46:49;;;;;;;6.03;2.05;;;;;;;12.28;100.00;102286.44;6230577;23;20090;-76
2023/06/07 06:49:33;;;;;;;9.10;2.60;;;;;;;12.36;100.00;102287.06;6242684;23;20180;-77
2023/06/07 06:52:17;;;;;;;5.45;2.10;;;;;;;12.40;100.00;102289.63;6242527;23;20098;-77
2023/06/07 06:55:01;;;;;;;6.60;2.33;;;;;;;12.40;100.00;102290.50;6242359;23;20027;-77
2023/06/07 06:57:45;;;;;;;6.07;2.38;;;;;;;12.56;100.00;102296.22;6243383;23;20034;-76
2023/06/07 07:00:31;;;;;;;3.80;2.15;;;;;;;12.67;100.00;102302.97;6229739;23;20027;-76
2023/06/07 07:03:15;;;;;;;6.13;2.38;;;;;;;12.67;100.00;102295.00;6230869;23;20348;-76
2023/06/07 07:05:59;;;;;;;6.28;1.98;;;;;;;12.75;100.00;102301.81;6217904;23;20078;-75
2023/06/07 07:08:44;;;;;;;5.07;2.10;;;;;;;12.79;100.00;102299.94;6242807;23;20554;-76
2023/06/07 07:11:28;;;;;;;8.05;2.47;;;;;;;12.86;100.00;102293.50;6242205;23;20031;-76
2023/06/07 07:14:12;;;;;;;4.93;1.98;;;;;;;12.83;100.00;102304.25;6240084;23;20017;-76
2023/06/07 07:16:56;;;;;;;6.35;2.20;;;;;;;12.91;100.00;102296.00;6240618;23;20546;-77
2023/06/07 07:19:40;;;;;;;4.50;1.88;;;;;;;13.22;100.00;102299.47;6241722;23;20074;-78
2023/06/07 07:22:24;;;;;;;6.35;2.20;;;;;;;13.46;100.00;102295.16;6243030;23;20026;-79
2023/06/07 07:25:09;;;;;;;4.30;2.28;;;;;;;13.75;100.00;102297.69;6231776;23;20059;-78
2023/06/07 07:27:53;;;;;;;4.05;2.03;;;;;;;13.98;100.00;102305.72;6242048;23;20466;-78
2023/06/07 07:30:37;;;;;;;5.80;2.67;;;;;;;14.04;100.00;102307.28;6218728;23;20101;-78
2023/06/07 07:33:21;;;;;;;6.60;2.30;;;;;;;14.05;100.00;102305.50;6241555;23;20054;-78
2023/06/07 07:36:06;;;;;;;8.73;2.53;;;;;;;14.04;100.00;102303.75;6219986;23;20079;-78
2023/06/07 07:38:51;;;;;;;7.68;2.20;;;;;;;13.90;100.00;102307.78;6232341;23;20089;-78
2023/06/07 07:41:35;;;;;;;8.45;2.50;;;;;;;13.90;100.00;102305.13;6243885;23;20059;-77
2023/06/07 07:44:19;;;;;;;6.03;2.20;;;;;;;13.95;100.00;102297.84;6239557;23;20494;-76
2023/06/07 07:47:05;;;;;;;3.38;2.40;;;;;;;14.02;100.00;102302.94;6207888;23;20035;-81
2023/06/07 07:49:49;;;;;;;5.85;2.60;;;;;;;14.01;100.00;102306.53;6242525;23;20031;-82
2023/06/07 07:52:33;;;;;;;4.93;2.30;;;;;;;14.00;100.00;102303.00;6240653;23;20183;-76
2023/06/07 07:55:17;;;;;;;2.70;2.22;;;;;;;14.15;100.00;102301.56;6241406;23;20047;-76
2023/06/07 07:58:01;;;;;;;8.38;2.40;;;;;;;14.30;100.00;102292.13;6243130;23;20043;-76
2023/06/07 08:00:45;;;;;;;5.13;2.60;;;;;;;14.37;100.00;102298.97;6242701;23;20030;-80
2023/06/07 08:03:29;;;;;;;4.18;2.42;;;;;;;14.34;100.00;102295.53;6231341;23;20150;-76
2023/06/07 08:06:13;;;;;;;6.00;2.70;;;;;;;14.25;100.00;102297.63;6241768;23;20175;-75
2023/06/07 08:08:57;;;;;;;5.60;2.30;;;;;;;14.26;100.00;102299.38;6219577;23;20062;-77
2023/06/07 08:11:41;;;;;;;6.38;2.90;;;;;;;14.39;100.00;102304.22;6242049;23;20027;-77
2023/06/07 08:14:25;;;;;;;5.97;2.88;;;;;;;14.38;100.00;102303.34;6240560;23;20464;-78
2023/06/07 08:17:09;;;;;;;6.15;2.50;;;;;;;14.25;100.00;102308.28;6242636;23;20026;-79
2023/06/07 08:19:53;;;;;;;4.82;2.60;;;;;;;14.12;100.00;102307.00;6231038;23;20019;-79
2023/06/07 08:22:40;;;;;;;5.60;2.65;;;;;;;14.37;100.00;102303.41;6242125;23;20074;-80
2023/06/07 08:25:25;;;;;;;6.80;3.17;;;;;;;14.69;100.00;102301.28;6240670;23;20471;-79
2023/06/07 08:28:09;;;;;;;4.88;2.75;;;;;;;14.90;100.00;102296.94;6231387;23;20031;-79
2023/06/07 08:30:54;;;;;;;5.32;2.60;;;;;;;15.18;100.00;102297.56;6243437;23;20087;-79
2023/06/07 08:33:38;;;;;;;6.70;2.63;;;;;;;15.52;100.00;102290.78;6233479;23;20086;-78
2023/06/07 08:36:22;;;;;;;8.30;2.72;;;;;;;15.72;100.00;102291.72;6243586;23;20015;-79
2023/06/07 08:39:07;;;;;;;9.02;3.17;;;;;;;15.92;100.00;102292.66;6241763;23;20344;-79
2023/06/07 08:41:51;;;;;;;4.05;2.92;;;;;;;16.03;100.00;102287.72;6243568;23;20062;-79
2023/06/07 08:44:35;;;;;;;4.85;2.60;;;;;;;16.16;100.00;102282.66;6240260;23;20136;-79
2023/06/07 08:47:21;;;;;;;5.95;2.90;;;;;;;16.33;100.00;102286.38;6242259;23;20657;-80
2023/06/07 08:50:08;;;;;;;6.25;3.03;;;;;;;16.48;100.00;102284.75;6244144;23;20399;-78
2023/06/07 08:52:57;;;;;;;5.70;2.50;;;;;;;16.55;100.00;102276.38;6208777;23;20124;-79
2023/06/07 08:55:42;;;;;;;5.32;2.58;;;;;;;16.68;100.00;102283.81;6244873;23;20070;-80
2023/06/07 08:58:27;;;;;;;5.15;2.65;;;;;;;16.73;100.00;102280.91;6209787;23;20071;-80
2023/06/07 09:01:11;;;;;;;4.07;2.53;;;;;;;16.77;100.00;102285.19;6241335;23;20897;-80
2023/06/07 09:03:56;;;;;;;6.07;2.60;;;;;;;16.75;98.17;102284.38;6231550;23;20081;-82
2023/06/07 09:06:40;;;;;;;5.32;2.58;;;;;;;16.86;100.00;102284.72;6220417;23;20026;-83
2023/06/07 09:09:24;;;;;;;5.07;2.60;;;;;;;17.02;100.00;102283.97;6243875;23;20359;-81
2023/06/07 09:12:08;;;;;;;6.47;2.85;;;;;;;17.09;100.00;102290.75;6241602;23;20035;-81
2023/06/07 09:14:52;;;;;;;5.72;2.92;;;;;;;17.14;94.07;102290.50;6217354;23;20069;-80
2023/06/07 09:17:52;;;;;;;4.80;2.53;;;;;;;17.05;88.31;102287.34;6220915;23;20136;-78
2023/06/07 09:20:37;;;;;;;6.15;2.63;;;;;;;17.12;93.46;102281.69;6233014;23;20070;-77
2023/06/07 09:23:21;;;;;;;4.95;2.70;;;;;;;17.10;94.57;102279.97;6234560;23;20514;-79
2023/06/07 09:26:05;;;;;;;6.43;3.03;;;;;;;17.05;94.74;102284.69;6222244;23;20019;-80
2023/06/07 09:28:50;;;;;;;6.72;3.15;;;;;;;17.22;94.91;102291.00;6212617;23;20035;-79
2023/06/07 09:31:34;;;;;;;4.40;2.50;;;;;;;17.30;92.47;102285.25;6245455;23;20134;-78
2023/06/07 09:34:26;;;;;;;5.05;3.17;;;;;;;17.34;87.79;102286.84;6245253;23;20115;-78
2023/06/07 09:37:10;;;;;;;4.67;2.60;;;;;;;17.28;90.93;102279.13;6243693;23;20070;-77
2023/06/07 09:40:07;;;;;;;4.90;2.35;;;;;;;17.35;88.28;102268.03;6212746;23;20023;-77
2023/06/07 09:42:58;;;;;;;8.07;2.88;;;;;;;17.46;90.87;102275.50;6243777;23;20019;-77
2023/06/07 09:45:52;;;;;;;5.45;3.03;;;;;;;17.51;90.09;102270.78;6235615;23;20431;-80
2023/06/07 09:48:44;;;;;;;7.30;3.25;;;;;;;17.61;88.71;102272.97;6234381;23;20071;-78
2023/06/07 09:51:38;;;;;;;7.60;3.50;;;;;;;17.55;87.64;102271.47;6204397;23;20724;-79
2023/06/07 09:54:36;;;;;;;9.02;3.80;;;;;;;17.47;87.51;102269.19;6214673;23;20016;-79
2023/06/07 09:57:23;;;;;;;5.15;3.28;;;;;;;17.35;87.92;102267.16;6213210;23;20023;-79
2023/06/07 10:00:14;;;;;;;6.55;3.72;;;;;;;17.34;88.04;102270.78;6214528;23;20019;-80
2023/06/07 10:03:07;;;;;;;5.75;3.30;;;;;;;17.41;88.84;102274.88;6223906;23;20035;-79
2023/06/07 10:05:51;;;;;;;;;;;;;;;17.55;88.49;102275.97;6214781;23;20020;-79
2023/06/07 10:08:35;;;;;;;6.13;3.92;;;;;;;17.44;88.47;102263.13;6213497;23;19927;-76
2023/06/07 10:11:20;;;;;;;8.02;4.50;;;;;;;17.33;88.87;102272.56;6203020;23;20015;-75
2023/06/07 10:14:06;;;;;;;11.57;4.65;;;;;;;17.31;89.01;102266.44;6232371;23;20059;-75
2023/06/07 10:16:54;;;;;;;6.90;4.20;;;;;;;17.29;88.45;102279.03;6235325;23;20019;-75
2023/06/07 10:19:48;;;;;;;8.38;4.38;;;;;;;17.34;87.35;102265.41;6213513;23;20059;-75
2023/06/07 10:22:38;;;;;;;6.65;4.30;;;;;;;17.32;88.70;102261.97;6212907;23;20015;-75
2023/06/07 10:25:23;;;;;;;7.75;4.00;;;;;;;17.44;90.04;102258.63;6213390;23;20526;-80
2023/06/07 10:28:19;;;;;;;10.88;4.88;;;;;;;17.45;88.03;102257.72;6212095;23;20023;-80
2023/06/07 10:31:05;;;;;;;7.32;4.32;;;;;;;17.42;90.22;102255.16;6202121;23;20023;-83
2023/06/07 10:33:51;;;;;;;7.25;4.25;;;;;;;17.42;89.15;102254.31;6212858;23;20020;-80
2023/06/07 10:36:38;;;;;;;5.28;4.05;;;;;;;17.50;89.42;102261.00;6212582;23;20070;-80
2023/06/07 10:39:22;;;;;;;7.82;4.22;;;;;;;17.53;88.12;102261.78;6214167;23;20407;-80
2023/06/07 10:42:10;;;;;;;7.25;4.10;;;;;;;17.58;86.86;102257.91;6201551;23;20500;-79
2023/06/07 10:44:54;;;;;;;7.82;4.80;;;;;;;17.58;87.94;102254.34;6206198;23;20011;-79
2023/06/07 10:47:39;;;;;;;7.65;4.38;;;;;;;17.58;88.29;102249.88;6211859;23;20094;-79
2023/06/07 10:50:26;;;;;;;8.40;4.70;;;;;;;17.61;88.27;102252.38;6213612;23;20028;-79
2023/06/07 10:53:10;;;;;;;9.05;3.90;;;;;;;17.64;87.00;102254.03;6213850;23;20078;-80
2023/06/07 10:55:55;;;;;;;6.22;3.80;;;;;;;17.58;87.95;102259.72;6213470;23;20341;-82
2023/06/07 10:58:40;;;;;;;9.57;3.63;;;;;;;17.55;87.94;102254.53;6213414;23;20035;-81
2023/06/07 11:01:25;;;;;;;7.70;3.85;;;;;;;17.49;89.27;102253.06;6214136;23;20070;-79
2023/06/07 11:04:35;;;;;;;6.35;4.03;;;;;;;17.64;88.01;102252.25;6213460;23;20030;-78
2023/06/07 11:07:24;;;;;;;6.88;3.88;;;;;;;17.67;86.92;102248.53;6213500;23;20019;-78
2023/06/07 11:10:08;;;;;;;6.35;3.65;;;;;;;17.78;87.08;102251.47;6213954;23;20123;-78
2023/06/07 11:12:57;;;;;;;8.02;3.92;;;;;;;17.78;84.90;102250.63;6213005;23;20148;-78
2023/06/07 11:15:42;;;;;;;6.68;4.13;;;;;;;17.82;87.20;102248.66;6182095;23;20377;-79
2023/06/07 11:18:52;;;;;;;6.82;4.15;;;;;;;17.97;87.13;102255.00;6224041;23;20370;-78
2023/06/07 11:21:58;;;;;;;6.00;3.90;;;;;;;17.90;85.79;102247.28;6233576;23;20449;-79
2023/06/07 11:24:42;;;;;;;6.88;3.75;;;;;;;17.88;86.07;102249.16;6214050;23;20469;-78
2023/06/07 11:27:27;;;;;;;9.20;4.18;;;;;;;17.80;86.37;102247.88;6210515;23;20097;-80
2023/06/07 11:30:11;;;;;;;6.05;4.10;;;;;;;17.84;88.72;102244.94;6212784;23;20081;-78
2023/06/07 11:32:57;;;;;;;6.13;4.38;;;;;;;17.94;86.26;102249.78;6212017;23;20031;-80
2023/06/07 11:35:42;;;;;;;6.65;4.38;;;;;;;17.94;87.03;102247.09;6203626;23;20583;-79
2023/06/07 11:38:26;;;;;;;8.00;4.47;;;;;;;17.99;86.63;102237.91;6224056;23;20027;-80
2023/06/07 11:41:11;;;;;;;8.38;4.75;;;;;;;17.95;87.13;102244.34;6213582;23;20755;-82
2023/06/07 11:43:56;;;;;;;7.47;4.07;;;;;;;17.98;88.57;102240.66;6212275;23;20051;-80
2023/06/07 11:46:41;;;;;;;7.18;4.32;;;;;;;18.00;87.07;102241.41;6202978;23;20019;-83
2023/06/07 11:49:25;;;;;;;7.47;4.45;;;;;;;17.99;87.24;102235.22;6242491;23;20328;-81
2023/06/07 11:52:09;;;;;;;7.68;4.90;;;;;;;18.04;85.77;102234.97;6242436;23;20414;-81
2023/06/07 11:54:53;;;;;;;11.25;4.47;;;;;;;17.95;87.27;102230.97;6211390;23;20119;-80
2023/06/07 11:57:38;;;;;;;9.52;4.70;;;;;;;17.85;86.57;102237.75;6168474;23;20016;-80
2023/06/07 12:00:23;;;;;;;8.27;4.20;;;;;;;17.94;88.41;102231.03;6244607;23;20047;-80
2023/06/07 12:03:08;;;;;;;8.30;4.22;;;;;;;18.07;88.57;102239.31;6243237;23;20019;-76
2023/06/07 12:05:53;;;;;;;9.18;4.60;;;;;;;18.21;86.73;102231.38;6243651;23;20031;-83
2023/06/07 12:08:37;;;;;;;7.25;3.67;;;;;;;18.16;85.43;102228.06;6220822;23;20042;-80
2023/06/07 12:11:24;;;;;;;10.93;4.10;;;;;;;18.15;86.72;102221.00;6242748;23;20031;-83
2023/06/07 12:14:09;;;;;;;9.40;4.10;;;;;;;18.17;86.17;102230.69;6218474;23;20030;-82
2023/06/07 12:16:55;;;;;;;9.15;4.20;;;;;;;18.23;86.63;102231.25;6231094;23;20054;-83
2023/06/07 12:19:39;;;;;;;5.07;3.40;;;;;;;18.30;86.35;102228.16;6244112;23;20046;-80
2023/06/07 12:22:25;;;;;;;6.22;4.03;;;;;;;18.53;87.03;102236.69;6244062;23;20125;-82
2023/06/07 12:25:12;;;;;;;5.03;3.70;;;;;;;18.52;85.10;102237.66;6220270;23;20012;-85
2023/06/07 12:27:56;;;;;;;7.70;4.00;;;;;;;18.44;85.41;102234.56;6241617;23;20103;-81
2023/06/07 12:30:41;;;;;;;7.15;3.80;;;;;;;18.43;86.20;102233.69;6242542;23;20399;-81
2023/06/07 12:33:27;;;;;;;8.43;4.25;;;;;;;18.38;85.50;102233.09;6242299;23;20132;-82
2023/06/07 12:36:10;;;;;;;7.85;4.15;;;;;;;18.19;86.94;102233.25;6219353;23;20011;-85
2023/06/07 12:38:58;;;;;;;6.13;4.22;;;;;;;18.15;85.42;102227.19;6229863;23;20478;-80
2023/06/07 12:41:42;;;;;;;6.55;3.95;;;;;;;18.25;87.81;102232.91;6241971;23;20019;-83
2023/06/07 12:44:26;;;;;;;6.28;3.85;;;;;;;18.33;86.64;102235.16;6207845;23;20586;-81
2023/06/07 12:47:10;;;;;;;7.15;3.78;;;;;;;18.31;86.28;102229.88;6241646;23;20119;-81